M I D A S
Marine Information and Data Acquisition System
Tripno 1679 of the Zeeleeuw from 2009-04-22 07:15:18 to 2009-04-22 11:59:43
Back to CruiseResearch ActivitiesStationsMapUnderway DataData graphs

EquipmentUnitsComment
TimeDGPSUTC
LatitudeDGPSDM.mWGS84
LongitudeDGPSDM.mWGS84
TemperatureSBE03/SBE38deg celciusITS90
ConductivitySBE21S/mITS90
SalinitySBE21 Practical Salinity Units
ChlorophylAChelsea fluorimeterg/lCalibrated in Aceton
Missing or incorrect values are displayed as -999
Sea surface data collected by the RV Zeeleeuw from 2009-04-22 07:07:40 to 2009-04-22 12:13:01
Time Latitude Longitude Temperature Conductivity Salinity ChlorophylA
2009-04-22 07:08:49 51°13.679 2°55.895 -999 0.024714 0.139416 -1.10504
2009-04-22 07:09:48 51°13.694 2°55.807 -999 0.024714 0.139421 -1.10504
2009-04-22 07:10:47 51°13.704 2°55.749 -999 0.024714 0.139428 -1.10504
2009-04-22 07:11:46 51°13.71 2°55.751 -999 0.024714 0.139443 -1.10504
2009-04-22 07:12:46 51°13.709 2°55.737 -999 0.024714 0.139445 -1.10504
2009-04-22 07:13:45 51°13.762 2°55.691 -999 0.024714 0.13945 -1.10504
2009-04-22 07:14:45 51°13.862 2°55.604 -999 0.024714 0.139458 -1.10504
2009-04-22 07:15:45 51°13.982 2°55.519 -999 0.024714 0.13946 -1.10504
2009-04-22 07:16:45 51°14.107 2°55.426 -999 0.024714 0.139465 -1.10504
2009-04-22 07:17:46 51°14.228 2°55.304 -999 0.024714 0.13947 -1.10504
2009-04-22 07:18:45 51°14.324 2°55.136 -999 0.024714 0.139475 -1.10504
2009-04-22 07:19:45 51°14.415 2°54.942 -999 0.024714 0.139477 -1.10504
2009-04-22 07:20:45 51°14.533 2°54.759 -999 0.024714 0.139485 -1.10504
2009-04-22 07:21:45 51°14.667 2°54.602 -999 0.024714 0.139487 -1.10504
2009-04-22 07:22:45 51°14.814 2°54.484 -999 0.024714 0.139499 -1.10504
2009-04-22 07:23:45 51°14.955 2°54.348 -999 0.024714 0.139504 -1.10504
2009-04-22 07:24:45 51°15.105 2°54.189 -999 0.024714 0.139516 -1.10504
2009-04-22 07:25:45 51°15.202 2°54.089 -999 0.024714 0.139519 -1.10504
2009-04-22 07:26:45 51°15.267 2°54.018 -999 0.024714 0.139524 -1.10504
2009-04-22 07:27:45 51°15.305 2°53.928 -999 0.024611 0.138962 -1.10504
2009-04-22 07:28:45 51°15.259 2°53.83 -999 0.024611 0.138962 -1.10504
2009-04-22 07:29:45 51°15.12 2°53.816 -999 0.024611 0.138957 -1.10504
2009-04-22 07:30:45 51°14.935 2°53.858 -999 0.024611 0.138969 -1.10504
2009-04-22 07:31:45 51°14.747 2°53.946 -999 0.024714 0.139553 -1.10504
2009-04-22 07:32:45 51°14.543 2°53.976 -999 0.024714 0.139556 -1.070216
2009-04-22 07:33:46 51°14.355 2°53.837 -999 0.024714 0.139568 -1.10504
2009-04-22 07:34:45 51°14.213 2°53.603 -999 0.024714 0.13958 -1.10504
2009-04-22 07:35:46 51°14.088 2°53.329 -999 0.024508 0.138428 -1.10504
2009-04-22 07:36:45 51°13.965 2°53.064 -999 0.024714 0.1396 -1.10504
2009-04-22 07:37:45 51°13.836 2°52.799 -999 0.024714 0.139605 -1.10504
2009-04-22 07:38:45 51°13.704 2°52.537 -999 0.024714 0.13961 -1.10504
2009-04-22 07:39:45 51°13.574 2°52.283 -999 0.024714 0.139619 -1.10504
2009-04-22 07:40:45 51°13.481 2°52.053 -999 0.024714 0.139619 -1.10504
2009-04-22 07:41:45 51°13.416 2°51.845 -999 0.024714 0.139624 -1.10504
2009-04-22 07:42:46 51°13.358 2°51.654 -999 0.024714 0.139627 -1.10504
2009-04-22 07:43:45 51°13.308 2°51.497 -999 0.024714 0.139629 -1.10504
2009-04-22 07:44:46 51°13.266 2°51.368 -999 0.024714 0.139632 -1.10504
2009-04-22 07:45:45 51°13.241 2°51.284 -999 0.024714 0.139634 -1.10504
2009-04-22 07:46:45 51°13.23 2°51.262 -999 0.024714 0.139641 -1.10504
2009-04-22 07:47:45 51°13.217 2°51.248 -999 0.024714 0.139646 -1.10504
2009-04-22 07:48:45 51°13.204 2°51.236 -999 0.024714 0.139654 -1.10504
2009-04-22 07:49:45 51°13.192 2°51.224 -999 0.024611 0.139076 -1.10504
2009-04-22 07:50:45 51°13.179 2°51.213 -999 0.024611 0.139084 -1.10504
2009-04-22 07:51:45 51°13.166 2°51.202 -999 0.024714 0.139671 -1.10504
2009-04-22 07:52:45 51°13.153 2°51.19 -999 0.024714 0.139676 -1.10504
2009-04-22 07:53:46 51°13.14 2°51.178 -999 0.024611 0.139101 -1.10504
2009-04-22 07:54:45 51°13.128 2°51.167 -999 0.024611 0.139106 -1.10504
2009-04-22 07:55:46 51°13.116 2°51.155 -999 0.024611 0.13911 -1.10504
2009-04-22 07:56:45 51°13.105 2°51.145 -999 0.024611 0.139115 -1.10504
2009-04-22 07:57:45 51°13.094 2°51.135 -999 0.024611 0.139123 -1.10504
2009-04-22 07:58:45 51°13.084 2°51.126 -999 0.024611 0.139128 -1.10504
2009-04-22 07:59:45 51°13.074 2°51.117 -999 0.024611 0.139135 -1.10504
2009-04-22 08:00:46 51°13.064 2°51.108 -999 0.024611 0.139142 -1.10504
2009-04-22 08:01:45 51°13.054 2°51.1 -999 0.024611 0.139147 -1.10504
2009-04-22 08:02:45 51°13.044 2°51.093 -999 0.024611 0.139155 -1.10504
2009-04-22 08:03:45 51°13.033 2°51.081 -999 0.024611 0.139157 -1.10504
2009-04-22 08:04:46 51°12.992 2°51.01 -999 0.024611 0.139181 -1.10504
2009-04-22 08:05:46 51°12.93 2°50.96 -999 0.024611 0.139172 -1.10504
2009-04-22 08:06:46 51°12.884 2°50.892 -999 0.024611 0.139177 -1.10504
2009-04-22 08:07:46 51°12.852 2°50.814 -999 0.024611 0.139181 -1.10504
2009-04-22 08:08:45 51°12.827 2°50.734 -999 0.024611 0.139186 -1.10504
2009-04-22 08:09:45 51°12.8 2°50.654 -999 0.024611 0.139189 -1.10504
2009-04-22 08:10:45 51°12.764 2°50.57 -999 0.024611 0.139194 -1.10504
2009-04-22 08:11:46 51°12.723 2°50.483 -999 0.024611 0.139199 -1.10504
2009-04-22 08:12:45 51°12.685 2°50.404 -999 0.024611 0.139203 -1.10504
2009-04-22 08:13:45 51°12.65 2°50.328 -999 0.024611 0.139208 -1.10504
2009-04-22 08:14:45 51°12.614 2°50.253 -999 0.024611 0.139213 -1.10504
2009-04-22 08:15:45 51°12.578 2°50.179 -999 0.024611 0.139218 -1.10504
2009-04-22 08:16:45 51°12.539 2°50.111 -999 0.024611 0.139223 -1.070216
2009-04-22 08:17:45 51°12.498 2°50.045 -999 0.024611 0.139228 -1.10504
2009-04-22 08:18:46 51°12.458 2°49.975 -999 0.024611 0.139235 -1.10504
2009-04-22 08:19:46 51°12.419 2°49.906 -999 0.024611 0.13924 -1.10504
2009-04-22 08:20:46 51°12.379 2°49.84 -999 0.024611 0.139245 -1.10504
2009-04-22 08:21:46 51°12.347 2°49.768 -999 0.024611 0.13925 -1.10504
2009-04-22 08:22:46 51°12.315 2°49.693 -999 0.024611 0.139255 -1.10504
2009-04-22 08:23:45 51°12.282 2°49.622 -999 0.025022 0.141601 -1.10504
2009-04-22 08:24:46 51°12.247 2°49.55 -999 0.025125 0.142773 -1.10504
2009-04-22 08:25:46 51°12.212 2°49.479 -999 0.025228 0.14337 -1.10504
2009-04-22 08:26:45 51°12.177 2°49.408 -999 0.025228 0.143377 -1.10504
2009-04-22 08:27:45 51°12.141 2°49.335 -999 0.025331 0.144008 -1.10504
2009-04-22 08:28:45 51°12.106 2°49.26 -999 0.025743 0.146462 -1.10504
2009-04-22 08:29:46 51°12.071 2°49.181 -999 0.02564 0.145808 -1.10504
2009-04-22 08:30:46 51°12.036 2°49.103 -999 0.025743 0.146553 -1.10504
2009-04-22 08:31:46 51°12 2°49.025 -999 0.025743 0.146496 -1.10504
2009-04-22 08:32:46 51°11.964 2°48.948 -999 0.025846 0.147052 -1.10504
2009-04-22 08:33:45 51°11.93 2°48.87 -999 0.026052 0.14824 -1.10504
2009-04-22 08:34:45 51°11.894 2°48.793 -999 0.026052 0.148247 -1.10504
2009-04-22 08:35:45 51°11.862 2°48.713 -999 3.8467 30.161582 17.908893
2009-04-22 08:36:46 51°11.832 2°48.628 -999 3.504531 30.377349 17.28206
2009-04-22 08:37:45 51°11.802 2°48.548 -999 3.48433 30.331622 19.789392
2009-04-22 08:38:46 51°11.774 2°48.465 -999 3.479876 30.310016 20.485873
2009-04-22 08:39:46 51°11.759 2°48.383 -999 3.482051 30.322464 23.89863
2009-04-22 08:40:45 51°11.753 2°48.305 -999 3.487543 30.430744 28.321285
2009-04-22 08:41:46 51°11.757 2°48.227 -999 3.488372 30.44452 26.162194
2009-04-22 08:42:46 51°11.773 2°48.175 -999 3.493137 30.46765 22.923557
2009-04-22 08:43:45 51°11.788 2°48.149 -999 3.494795 30.496649 20.03316
2009-04-22 08:44:45 51°11.8 2°48.136 -999 3.494899 30.512781 18.918791
2009-04-22 08:45:46 51°11.809 2°48.13 -999 3.496038 30.520218 18.291958
2009-04-22 08:46:46 51°11.817 2°48.127 -999 3.496349 30.526834 17.560652
2009-04-22 08:47:45 51°11.836 2°48.117 -999 3.496971 30.531415 16.898995
2009-04-22 08:48:46 51°11.871 2°48.128 -999 3.497075 30.549017 16.132866
2009-04-22 08:49:46 51°11.914 2°48.16 -999 3.497696 30.563713 14.948848
2009-04-22 08:50:45 51°11.96 2°48.205 -999 3.494796 30.544973 15.923922
2009-04-22 08:51:45 51°11.993 2°48.27 -999 3.497386 30.59108 16.306987
2009-04-22 08:52:45 51°12.012 2°48.329 -999 3.498007 30.581189 13.904127
2009-04-22 08:53:45 51°12.026 2°48.379 -999 3.499561 30.576737 14.53096
2009-04-22 08:54:45 51°12.039 2°48.424 -999 3.499457 30.567783 14.844376
2009-04-22 08:55:45 51°12.048 2°48.464 -999 3.498836 30.556702 14.948848
2009-04-22 08:56:45 51°12.056 2°48.501 -999 3.498628 30.554694 14.948848
2009-04-22 08:57:45 51°12.063 2°48.536 -999 3.497489 30.537155 14.948848
2009-04-22 08:58:45 51°12.069 2°48.569 -999 3.500804 30.560618 14.914024
2009-04-22 08:59:45 51°12.074 2°48.602 -999 3.502254 30.556631 14.426488
2009-04-22 09:00:45 51°12.08 2°48.634 -999 3.502565 30.548826 14.565784
2009-04-22 09:01:46 51°12.085 2°48.667 -999 3.503497 30.542722 13.973775
2009-04-22 09:02:45 51°12.09 2°48.699 -999 3.503808 30.539249 14.461312
2009-04-22 09:03:45 51°12.094 2°48.731 -999 3.503808 30.532772 14.914024
2009-04-22 09:04:45 51°12.098 2°48.762 -999 3.502564 30.526503 15.784626
2009-04-22 09:05:45 51°12.103 2°48.794 -999 3.500493 30.52157 16.446283
2009-04-22 09:06:45 51°12.108 2°48.828 -999 3.500492 30.497837 17.316884
2009-04-22 09:07:46 51°12.114 2°48.862 -999 3.499353 30.488255 18.326782
2009-04-22 09:08:45 51°12.12 2°48.895 -999 3.497073 30.456889 18.57055
2009-04-22 09:09:45 51°12.126 2°48.929 -999 3.497591 30.448268 19.162559
2009-04-22 09:10:46 51°12.132 2°48.964 -999 3.494483 30.406791 17.734773
2009-04-22 09:11:45 51°12.138 2°48.997 -999 3.491375 30.391087 17.386532
2009-04-22 09:12:45 51°12.144 2°49.03 -999 3.488992 30.371648 17.142764
2009-04-22 09:13:45 51°12.151 2°49.064 -999 3.487231 30.354637 16.411459
2009-04-22 09:14:46 51°12.157 2°49.097 -999 3.485574 30.347204 16.655227
2009-04-22 09:15:45 51°12.164 2°49.128 -999 3.485366 30.336627 16.028394
2009-04-22 09:16:45 51°12.17 2°49.161 -999 3.484952 30.332625 15.889098
2009-04-22 09:17:45 51°12.176 2°49.194 -999 3.485366 30.336627 15.784626
2009-04-22 09:18:46 51°12.182 2°49.227 -999 3.485988 30.344059 16.341811
2009-04-22 09:19:45 51°12.188 2°49.26 -999 3.486506 30.348348 16.446283
2009-04-22 09:20:45 51°12.194 2°49.293 -999 3.486402 30.352351 16.481107
2009-04-22 09:21:45 51°12.2 2°49.326 -999 3.48661 30.351493 17.038292
2009-04-22 09:22:46 51°12.206 2°49.361 -999 3.488163 30.33864 16.481107
2009-04-22 09:23:45 51°12.212 2°49.395 -999 3.486506 30.324784 16.481107
2009-04-22 09:24:45 51°12.217 2°49.428 -999 3.485366 30.315213 16.098042
2009-04-22 09:25:46 51°12.224 2°49.463 -999 3.484019 30.31006 15.645329
2009-04-22 09:26:46 51°12.23 2°49.498 -999 3.484226 30.307067 15.575681
2009-04-22 09:27:45 51°12.236 2°49.533 -999 3.484226 30.303502 14.8792
2009-04-22 09:28:45 51°12.243 2°49.567 -999 3.485055 30.290833 14.182719
2009-04-22 09:29:46 51°12.25 2°49.603 -999 3.48578 30.28857 13.695182
2009-04-22 09:30:46 51°12.256 2°49.638 -999 3.486298 30.290005 13.730007
2009-04-22 09:31:45 51°12.263 2°49.672 -999 3.486402 30.295275 14.182719
2009-04-22 09:32:45 51°12.27 2°49.707 -999 3.486816 30.297134 13.904127
2009-04-22 09:33:45 51°12.277 2°49.742 -999 3.488266 30.293321 13.521062
2009-04-22 09:34:46 51°12.285 2°49.778 -999 3.489924 30.292932 13.172822
2009-04-22 09:35:45 51°12.293 2°49.815 -999 3.489406 30.301456 13.346942
2009-04-22 09:36:46 51°12.308 2°49.864 -999 3.48837 30.307843 13.938951
2009-04-22 09:37:45 51°12.331 2°49.91 -999 3.48692 30.315945 14.600608
2009-04-22 09:38:46 51°12.361 2°49.942 -999 3.485988 30.315505 14.565784
2009-04-22 09:39:45 51°12.389 2°49.957 -999 3.487231 30.316804 15.122969
2009-04-22 09:40:45 51°12.415 2°49.964 -999 3.483709 30.339195 15.784626
2009-04-22 09:41:46 51°12.44 2°49.965 -999 3.482777 30.325184 15.227441
2009-04-22 09:42:46 51°12.465 2°49.964 -999 3.485055 30.310787 14.70508
2009-04-22 09:43:45 51°12.489 2°49.961 -999 3.486195 30.303961 14.739904
2009-04-22 09:44:45 51°12.518 2°49.952 -999 3.485987 30.309088 14.983672
2009-04-22 09:45:46 51°12.551 2°49.941 -999 3.486298 30.317791 15.401561
2009-04-22 09:46:46 51°12.58 2°49.908 -999 3.488474 30.354494 18.187485
2009-04-22 09:47:45 51°12.593 2°49.882 -999 3.493033 30.435765 18.535726
2009-04-22 09:48:45 51°12.604 2°49.863 -999 3.492515 30.44152 16.759699
2009-04-22 09:49:45 51°12.616 2°49.848 -999 3.495519 30.402486 15.366737
2009-04-22 09:50:46 51°12.63 2°49.838 -999 3.506707 30.460358 12.476341
2009-04-22 09:51:46 51°12.646 2°49.833 -999 3.508055 30.558014 11.153027
2009-04-22 09:52:46 51°12.664 2°49.829 -999 3.506916 30.552033 10.595842
2009-04-22 09:53:45 51°12.682 2°49.827 -999 3.509298 30.557799 10.177953
2009-04-22 09:54:46 51°12.702 2°49.827 -999 3.510231 30.55674 10.108305
2009-04-22 09:55:46 51°12.723 2°49.828 -999 3.512302 30.555909 10.143129
2009-04-22 09:56:46 51°12.744 2°49.836 -999 3.511681 30.549907 10.874434
2009-04-22 09:57:46 51°12.763 2°49.85 -999 3.50992 30.540083 11.849508
2009-04-22 09:58:46 51°12.78 2°49.868 -999 3.512613 30.547418 11.187851
2009-04-22 09:59:46 51°12.798 2°49.888 -999 3.511473 30.543597 12.023628
2009-04-22 10:00:45 51°12.813 2°49.911 -999 3.512199 30.539829 11.95398
2009-04-22 10:01:45 51°12.828 2°49.935 -999 3.513234 30.541933 11.570915
2009-04-22 10:02:45 51°12.842 2°49.96 -999 3.513442 30.543215 11.327147
2009-04-22 10:03:46 51°12.855 2°49.986 -999 3.51282 30.540804 12.232572
2009-04-22 10:04:46 51°12.867 2°50.012 -999 3.512406 30.531784 12.685285
2009-04-22 10:05:46 51°12.877 2°50.04 -999 3.511991 30.527068 13.033525
2009-04-22 10:06:46 51°12.887 2°50.067 -999 3.512198 30.514731 13.59071
2009-04-22 10:07:46 51°12.897 2°50.095 -999 3.512405 30.50527 14.496136
2009-04-22 10:08:46 51°12.906 2°50.124 -999 3.511369 30.50101 14.809552
2009-04-22 10:09:45 51°12.914 2°50.154 -999 3.51023 30.490739 15.331913
2009-04-22 10:10:46 51°12.923 2°50.185 -999 3.509608 30.481884 16.098042
2009-04-22 10:11:46 51°12.93 2°50.217 -999 3.508261 30.467471 17.142764
2009-04-22 10:12:45 51°12.938 2°50.248 -999 3.508261 30.464611 17.699949
2009-04-22 10:13:45 51°12.946 2°50.28 -999 3.508883 30.461309 17.560652
2009-04-22 10:14:46 51°12.954 2°50.314 -999 3.509815 30.457432 17.630301
2009-04-22 10:15:46 51°12.962 2°50.347 -999 3.511679 30.44256 17.874069
2009-04-22 10:16:46 51°12.97 2°50.381 -999 3.511161 30.431162 17.804421
2009-04-22 10:17:46 51°12.978 2°50.414 -999 3.510954 30.420622 18.431254
2009-04-22 10:18:46 51°12.986 2°50.447 -999 3.511057 30.418059 18.048189
2009-04-22 10:19:46 51°12.994 2°50.479 -999 3.510643 30.404113 17.769597
2009-04-22 10:20:46 51°13.002 2°50.512 -999 3.508571 30.394152 17.595476
2009-04-22 10:21:46 51°13.01 2°50.544 -999 3.50681 30.402836 17.769597
2009-04-22 10:22:46 51°13.017 2°50.577 -999 3.505567 30.40512 16.829347
2009-04-22 10:23:46 51°13.025 2°50.611 -999 3.506603 30.395146 16.898995
2009-04-22 10:24:46 51°13.034 2°50.644 -999 3.508053 30.411949 18.013365
2009-04-22 10:25:45 51°13.041 2°50.677 -999 3.507224 30.418224 17.943717
2009-04-22 10:26:46 51°13.05 2°50.711 -999 3.506189 30.419659 17.665125
2009-04-22 10:27:45 51°13.058 2°50.744 -999 3.505774 30.410678 17.038292
2009-04-22 10:28:46 51°13.066 2°50.777 -999 3.506085 30.404405 15.680154
2009-04-22 10:29:46 51°13.075 2°50.81 -999 3.506396 30.40241 15.610505
2009-04-22 10:30:45 51°13.083 2°50.841 -999 3.506395 30.396713 15.157793
2009-04-22 10:31:46 51°13.091 2°50.874 -999 3.505567 30.392298 14.844376
2009-04-22 10:32:46 51°13.1 2°50.907 -999 3.50536 30.395289 14.983672
2009-04-22 10:33:46 51°13.108 2°50.941 -999 3.504738 30.39643 14.809552
2009-04-22 10:34:45 51°13.116 2°50.975 -999 3.505774 30.390732 14.391664
2009-04-22 10:35:46 51°13.124 2°51.009 -999 3.50567 30.399705 14.8792
2009-04-22 10:36:45 51°13.132 2°51.042 -999 3.50536 30.398851 15.506033
2009-04-22 10:37:46 51°13.141 2°51.077 -999 3.504945 30.406263 15.157793
2009-04-22 10:38:46 51°13.149 2°51.11 -999 3.50391 30.420538 15.923922
2009-04-22 10:39:46 51°13.157 2°51.145 -999 3.502045 30.433281 15.749802
2009-04-22 10:40:46 51°13.165 2°51.178 -999 3.501942 30.431567 15.958746
2009-04-22 10:41:45 51°13.174 2°51.211 -999 3.501423 30.411569 15.436385
2009-04-22 10:42:46 51°13.183 2°51.244 -999 3.50163 30.382895 15.192617
2009-04-22 10:43:45 51°13.192 2°51.276 -999 3.501941 30.380188 15.366737
2009-04-22 10:44:46 51°13.201 2°51.309 -999 3.501734 30.378193 15.053321
2009-04-22 10:45:45 51°13.209 2°51.341 -999 3.502355 30.377768 15.297089
2009-04-22 10:46:46 51°13.218 2°51.375 -999 3.501941 30.370931 14.391664
2009-04-22 10:47:46 51°13.227 2°51.41 -999 3.502355 30.370649 14.113071
2009-04-22 10:48:46 51°13.236 2°51.444 -999 3.500698 30.374629 14.774728
2009-04-22 10:49:46 51°13.246 2°51.477 -999 3.501527 30.391876 15.645329
2009-04-22 10:50:45 51°13.255 2°51.51 -999 3.502977 30.36169 13.938951
2009-04-22 10:51:46 51°13.264 2°51.545 -999 3.504427 30.359288 13.764831
2009-04-22 10:52:46 51°13.273 2°51.578 -999 3.505359 30.359015 13.59071
2009-04-22 10:53:46 51°13.283 2°51.61 -999 3.503494 30.361695 13.521062
2009-04-22 10:54:45 51°13.291 2°51.642 -999 3.502769 30.363964 13.973775
2009-04-22 10:55:46 51°13.301 2°51.674 -999 3.502666 30.36439 13.973775
2009-04-22 10:56:46 51°13.309 2°51.707 -999 3.503909 30.364258 14.043423
2009-04-22 10:57:46 51°13.318 2°51.739 -999 3.505152 30.360575 13.904127
2009-04-22 10:58:46 51°13.326 2°51.771 -999 3.506499 30.361443 13.451414
2009-04-22 10:59:45 51°13.335 2°51.802 -999 3.506395 30.371815 14.391664
2009-04-22 11:00:46 51°13.344 2°51.834 -999 3.507017 30.370684 13.660358
2009-04-22 11:01:45 51°13.353 2°51.866 -999 3.508674 30.366014 13.207646
2009-04-22 11:02:46 51°13.361 2°51.899 -999 3.507535 30.389882 13.973775
2009-04-22 11:03:46 51°13.369 2°51.931 -999 3.507224 30.394008 14.8792
2009-04-22 11:04:46 51°13.378 2°51.964 -999 3.505981 30.394862 15.610505
2009-04-22 11:05:45 51°13.386 2°51.996 -999 3.506188 30.395431 15.923922
2009-04-22 11:06:46 51°13.395 2°52.029 -999 3.505877 30.393865 16.306987
2009-04-22 11:07:46 51°13.404 2°52.062 -999 3.506188 30.405402 17.073116
2009-04-22 11:08:45 51°13.412 2°52.093 -999 3.505774 30.410678 16.829347
2009-04-22 11:09:46 51°13.421 2°52.126 -999 3.506499 30.386322 15.018497
2009-04-22 11:10:46 51°13.429 2°52.158 -999 3.510021 30.370431 13.869303
2009-04-22 11:11:46 51°13.439 2°52.189 -999 3.511782 30.362512 13.660358
2009-04-22 11:12:46 51°13.448 2°52.221 -999 3.511471 30.364492 13.207646
2009-04-22 11:13:46 51°13.456 2°52.253 -999 3.512507 30.366635 13.24247
2009-04-22 11:14:46 51°13.464 2°52.285 -999 3.510124 30.372136 14.739904
2009-04-22 11:15:46 51°13.473 2°52.318 -999 3.509192 30.379512 15.610505
2009-04-22 11:16:46 51°13.481 2°52.35 -999 3.505877 30.377499 16.202514
2009-04-22 11:17:45 51°13.49 2°52.382 -999 3.505359 30.371807 16.028394
2009-04-22 11:18:46 51°13.498 2°52.414 -999 3.501837 30.383465 17.177588
2009-04-22 11:19:45 51°13.506 2°52.445 -999 3.504634 30.371944 16.16769
2009-04-22 11:20:46 51°13.514 2°52.475 -999 3.504531 30.380195 16.898995
2009-04-22 11:21:46 51°13.524 2°52.505 -999 3.505566 30.378777 17.073116
2009-04-22 11:22:46 51°13.531 2°52.535 -999 3.509917 30.373695 16.132866
2009-04-22 11:23:46 51°13.539 2°52.565 -999 3.511368 30.382655 16.132866
2009-04-22 11:24:46 51°13.548 2°52.595 -999 3.514268 30.379988 16.028394
2009-04-22 11:25:46 51°13.556 2°52.626 -999 3.512093 30.386069 17.038292
2009-04-22 11:26:46 51°13.563 2°52.657 -999 3.511264 30.390893 17.45618
2009-04-22 11:27:46 51°13.572 2°52.688 -999 3.510643 30.392737 18.291958
2009-04-22 11:28:46 51°13.58 2°52.719 -999 3.51085 30.401126 18.466078
2009-04-22 11:29:46 51°13.588 2°52.75 -999 3.509503 30.409522 19.406327
2009-04-22 11:30:46 51°13.596 2°52.782 -999 3.508468 30.417361 20.416225
2009-04-22 11:31:46 51°13.604 2°52.811 -999 3.507328 30.42136 20.659993
2009-04-22 11:32:46 51°13.613 2°52.761 -999 3.507328 30.40782 20.694817
2009-04-22 11:33:46 51°13.604 2°52.581 -999 3.506189 30.421086 25.047824
2009-04-22 11:34:46 51°13.602 2°52.476 -999 3.492308 30.46466 26.231842
2009-04-22 11:35:46 51°13.614 2°52.429 -999 3.49873 30.418462 18.361606
2009-04-22 11:36:46 51°13.631 2°52.41 -999 3.523488 30.398945 13.312118
2009-04-22 11:37:46 51°13.649 2°52.408 -999 3.529497 30.452243 12.30222
2009-04-22 11:38:46 51°13.666 2°52.416 -999 3.526597 30.487635 12.476341
2009-04-22 11:39:46 51°13.68 2°52.43 -999 3.536853 30.480137 11.01373
2009-04-22 11:40:46 51°13.692 2°52.446 -999 3.543069 30.516212 10.526194
2009-04-22 11:41:46 51°13.701 2°52.466 -999 3.545971 30.54892 10.526194
2009-04-22 11:42:45 51°13.71 2°52.487 -999 3.546903 30.545069 9.969009
2009-04-22 11:43:46 51°13.718 2°52.511 -999 3.547421 30.547186 9.794888
2009-04-22 11:44:46 51°13.725 2°52.536 -999 3.547835 30.546893 9.760064
2009-04-22 11:45:46 51°13.732 2°52.563 -999 3.548043 30.549583 9.655592
2009-04-22 11:46:46 51°13.739 2°52.59 -999 3.547939 30.551429 9.411824
2009-04-22 11:47:46 51°13.746 2°52.619 -999 3.548457 30.55851 9.20288
2009-04-22 11:48:46 51°13.76 2°52.62 -999 3.548768 30.559354 8.993935
2009-04-22 11:49:46 51°13.805 2°52.611 -999 3.551565 30.584682 8.471574
2009-04-22 11:50:46 51°13.875 2°52.724 -999 3.550116 30.632682 11.536091
2009-04-22 11:51:46 51°13.951 2°52.969 -999 3.537684 30.653422 15.366737
2009-04-22 11:52:46 51°14.031 2°53.263 -999 3.525978 30.667811 19.963512
2009-04-22 11:53:46 51°14.115 2°53.569 -999 3.518933 30.612026 19.719744
2009-04-22 11:54:46 51°14.203 2°53.866 -999 3.506398 30.550623 20.03316
2009-04-22 11:55:46 51°14.279 2°54.145 -999 3.500078 30.495985 19.650096
2009-04-22 11:56:46 51°14.35 2°54.411 -999 3.503911 30.483494 18.083013
2009-04-22 11:57:46 51°14.406 2°54.67 -999 3.510643 30.439008 16.341811
2009-04-22 11:58:46 51°14.397 2°54.929 -999 3.509918 30.423478 17.073116
2009-04-22 11:59:46 51°14.323 2°55.131 -999 3.504013 30.411546 18.640198
2009-04-22 12:00:46 51°14.261 2°55.247 -999 3.469306 29.998739 17.943717
2009-04-22 12:01:46 51°14.215 2°55.313 -999 0.101076 0.679757 -0.93092
2009-04-22 12:02:46 51°14.178 2°55.36 -999 0.084403 0.563252 -0.93092
2009-04-22 12:03:46 51°14.142 2°55.404 -999 0.077817 0.517513 -0.93092
2009-04-22 12:04:46 51°14.087 2°55.448 -999 0.073597 0.487856 -0.93092
2009-04-22 12:05:46 51°13.998 2°55.507 -999 0.07051 0.466145 -0.93092
2009-04-22 12:06:46 51°13.898 2°55.577 -999 0.069069 0.455994 -0.93092
2009-04-22 12:07:46 51°13.8 2°55.658 -999 0.068554 0.45222 -0.93092
2009-04-22 12:08:46 51°13.737 2°55.751 -999 0.067319 0.443512 -0.93092
2009-04-22 12:09:46 51°13.702 2°55.826 -999 0.071847 0.47447 -0.93092
2009-04-22 12:10:46 51°13.68 2°55.902 -999 0.070612 0.465776 -0.93092
2009-04-22 12:11:46 51°13.665 2°55.952 -999 0.069378 0.457047 -0.93092
2009-04-22 12:12:46 51°13.662 2°55.959 -999 0.067834 0.446288 -0.93092